Date,TemperatureHighF,TemperatureAvgF,TemperatureLowF,DewpointHighF,DewpointAvgF,DewpointLowF,HumidityHigh,HumidityAvg,HumidityLow,PressureMaxIn,PressureMinIn,WindSpeedMaxMPH,WindSpeedAvgMPH,GustSpeedMaxMPH,PrecipitationSumIn
2013-1-1,52.7,40.2,33.0,0.0,0.0,0.0,0,0,100,30.25,30.19,9,1,10,0.00
2013-1-2,41.3,36.5,34.9,0.0,0.0,0.0,0,0,100,30.24,30.19,6,1,6,0.00
2013-1-3,45.9,41.5,37.8,0.0,0.0,0.0,0,0,100,30.25,30.16,0,0,0,0.00
2013-1-4,59.0,44.7,39.2,0.0,0.0,0.0,0,0,100,30.27,30.20,3,1,3,0.00
2013-1-5,43.3,41.8,40.3,0.0,0.0,0.0,0,0,100,30.26,30.09,4,1,4,0.00
2013-1-6,47.2,42.2,40.1,0.0,0.0,0.0,0,0,100,30.16,30.07,0,0,0,0.02
2013-1-7,49.0,44.2,40.2,0.0,0.0,0.0,0,0,100,30.21,30.16,3,1,3,0.00
2013-1-8,59.9,45.7,38.1,0.0,0.0,0.0,0,0,100,30.19,30.14,8,0,8,0.01
2013-1-9,50.6,41.9,35.7,0.0,0.0,0.0,0,0,100,30.15,29.87,19,2,19,0.59
2013-1-10,45.4,37.0,31.2,0.0,0.0,0.0,0,0,100,30.10,29.97,10,1,10,0.00
2013-1-11,45.8,34.7,28.9,0.0,0.0,0.0,0,0,100,30.18,30.09,7,1,7,0.00
2013-1-12,46.2,34.5,27.9,0.0,0.0,0.0,0,0,100,30.18,30.10,10,1,10,0.00
2013-1-13,47.2,34.1,27.3,0.0,0.0,0.0,0,0,100,30.22,30.13,10,0,10,0.01
2013-1-14,52.4,37.6,30.1,0.0,0.0,0.0,0,0,100,30.35,30.17,9,0,9,0.00
2013-1-15,53.2,39.1,31.9,0.0,0.0,0.0,0,0,100,30.45,30.35,8,0,8,0.00
2013-1-16,63.2,45.5,37.8,0.0,0.0,0.0,0,0,100,30.42,30.27,10,0,10,0.00
2013-1-17,68.0,49.3,40.2,0.0,0.0,0.0,0,0,100,30.28,30.19,5,0,5,0.00
2013-1-18,68.8,50.7,42.2,0.0,0.0,0.0,0,0,100,30.27,30.17,7,1,7,0.00
2013-1-19,69.3,50.4,42.2,0.0,0.0,0.0,0,0,100,30.28,30.19,7,1,7,0.00
2013-1-20,69.3,51.0,43.3,0.0,0.0,0.0,0,0,100,30.25,30.14,7,1,7,0.00
2013-1-21,69.3,51.6,42.4,0.0,0.0,0.0,0,0,100,30.21,30.14,8,0,8,0.00
2013-1-22,71.1,53.5,44.4,0.0,0.0,0.0,0,0,100,30.17,30.05,8,1,8,0.01
2013-1-23,62.2,54.8,49.0,0.0,0.0,0.0,0,0,100,30.11,30.01,14,2,14,0.02
2013-1-24,53.4,52.4,50.7,0.0,0.0,0.0,0,0,100,30.15,30.08,7,2,8,0.00
2013-1-25,53.9,53.9,53.9,0.0,0.0,0.0,0,0,100,30.04,30.04,0,0,0,0.00
2013-1-29,57.1,49.0,46.3,0.0,0.0,0.0,0,0,100,30.31,30.22,7,2,7,0.00
2013-1-30,63.4,52.6,45.0,0.0,0.0,0.0,0,0,100,30.34,30.27,8,1,8,0.01
2013-1-31,68.4,50.9,42.3,0.0,0.0,0.0,0,0,100,30.32,30.22,7,1,7,0.00
2013-2-1,71.5,54.3,45.3,0.0,0.0,0.0,0,0,100,30.25,30.16,7,1,7,0.00
2013-2-2,71.0,54.0,47.2,0.0,0.0,0.0,0,0,100,30.30,30.22,5,1,5,0.00
2013-2-3,68.2,51.8,43.7,0.0,0.0,0.0,0,0,100,30.22,30.12,12,1,12,0.00
2013-2-4,67.3,52.6,45.4,0.0,0.0,0.0,0,0,100,30.17,30.06,10,1,10,0.00
2013-2-5,58.3,48.6,41.2,0.0,0.0,0.0,0,0,100,30.11,30.02,10,1,14,0.00
2013-2-6,63.7,46.4,37.7,0.0,0.0,0.0,0,0,100,30.15,30.08,14,2,14,0.01
2013-2-7,47.2,42.2,38.0,0.0,0.0,0.0,0,0,100,30.14,29.96,9,1,9,0.06
2013-2-8,52.4,39.6,32.6,0.0,0.0,0.0,0,0,100,29.96,29.87,11,1,11,0.01
2013-2-9,56.2,41.7,32.8,0.0,0.0,0.0,0,0,100,30.08,29.92,12,1,12,0.01
2013-2-10,51.9,38.0,33.7,0.0,0.0,0.0,0,0,100,30.09,30.04,7,0,9,0.01
2013-2-13,64.3,52.8,44.8,0.0,0.0,0.0,0,0,100,30.32,30.22,11,1,11,0.00
2013-2-14,72.3,55.1,45.0,0.0,0.0,0.0,0,0,100,30.24,30.18,10,1,10,0.00
2013-2-15,75.0,56.2,47.0,0.0,0.0,0.0,0,0,100,30.31,30.24,9,0,9,0.00
2013-2-16,68.2,54.8,46.6,0.0,0.0,0.0,0,0,100,30.29,30.06,7,1,7,0.00
2013-2-17,62.8,48.6,43.2,0.0,0.0,0.0,0,0,100,30.06,30.00,8,1,8,0.00
2013-2-18,42.4,41.1,40.2,0.0,0.0,0.0,0,0,100,29.92,29.89,9,5,9,0.00
2013-2-19,40.6,36.6,32.9,0.0,0.0,0.0,0,0,100,29.90,29.69,15,2,15,0.23
2013-2-20,42.5,34.6,31.1,0.0,0.0,0.0,0,0,100,30.00,29.75,5,0,5,0.03
2013-2-21,58.7,44.3,35.3,0.0,0.0,0.0,0,0,100,30.13,29.99,17,1,17,0.02
2013-2-22,62.2,46.8,37.3,0.0,0.0,0.0,0,0,100,30.22,30.13,10,1,10,0.00
2013-2-23,57.2,46.3,40.2,0.0,0.0,0.0,0,0,100,30.19,30.10,17,3,17,0.00
2013-2-24,66.5,47.5,36.7,0.0,0.0,0.0,0,0,100,30.24,30.14,10,1,10,0.00
2013-2-25,63.7,48.0,39.4,0.0,0.0,0.0,0,0,100,30.27,30.17,11,2,11,0.01
2013-2-26,41.7,41.7,41.6,0.0,0.0,0.0,0,0,100,30.19,30.19,3,3,5,0.00
2013-3-10,61.7,57.8,45.0,0.0,0.0,0.0,0,0,100,30.31,30.29,7,1,7,0.00
2013-3-11,72.7,62.2,52.0,0.0,0.0,0.0,0,0,100,30.24,30.14,12,1,12,0.00
2013-3-12,77.8,58.8,46.9,0.0,0.0,0.0,0,0,100,30.19,30.11,8,1,8,0.00
2013-3-13,78.8,63.2,52.4,0.0,0.0,0.0,0,0,100,30.21,30.14,10,2,10,0.00
2013-3-14,76.0,65.2,56.4,0.0,0.0,0.0,0,0,100,30.19,30.12,12,1,12,0.00
2013-3-15,77.0,60.7,52.1,0.0,0.0,0.0,0,0,100,30.14,30.05,11,1,11,0.00
2013-3-16,68.9,54.3,48.9,0.0,0.0,0.0,0,0,100,30.09,30.03,8,1,9,0.00
2013-3-17,53.2,51.3,47.5,0.0,0.0,0.0,0,0,100,30.09,30.07,0,0,0,0.00
2013-3-18,69.5,55.6,45.7,0.0,0.0,0.0,0,0,100,30.11,30.05,10,1,10,0.00
2013-3-19,66.0,55.7,52.3,0.0,0.0,0.0,0,0,100,30.13,30.07,11,1,11,0.00
2013-3-20,53.1,50.8,50.0,0.0,0.0,0.0,0,0,100,30.12,30.09,8,0,8,0.03
2013-3-21,64.3,56.6,48.9,0.0,0.0,0.0,0,0,100,30.10,29.99,12,2,12,0.00
2013-3-22,49.3,48.5,48.0,0.0,0.0,0.0,0,0,100,30.05,30.05,0,0,0,0.00
2013-3-23,43.9,43.9,43.9,0.0,0.0,0.0,0,0,100,30.06,30.06,3,3,3,0.00
2013-3-24,72.5,60.1,46.6,0.0,0.0,0.0,0,0,100,30.10,29.99,11,1,11,0.00
2013-3-25,72.0,57.0,49.5,0.0,0.0,0.0,0,0,100,30.02,29.92,15,2,15,0.00
2013-3-26,69.3,56.1,46.0,0.0,0.0,0.0,0,0,100,29.99,29.93,13,1,13,0.01
2013-3-27,70.9,56.7,48.4,0.0,0.0,0.0,0,0,100,30.03,29.94,17,2,17,0.00
2013-3-28,64.6,55.4,50.9,0.0,0.0,0.0,0,0,100,30.12,30.02,8,1,8,0.01
2013-3-29,61.4,52.3,50.2,0.0,0.0,0.0,0,0,100,30.12,30.09,6,3,6,0.00
2013-4-1,63.7,56.1,47.4,0.0,0.0,0.0,0,0,100,30.18,30.14,10,2,10,0.00
2013-4-2,70.3,55.5,43.9,0.0,0.0,0.0,0,0,100,30.16,30.09,11,2,11,0.00
2013-4-3,78.0,59.4,47.9,0.0,0.0,0.0,0,0,100,30.16,30.01,8,1,8,0.00
2013-4-4,58.0,53.2,47.7,0.0,0.0,0.0,0,0,100,30.12,30.00,12,1,12,0.63
2013-4-5,63.9,54.6,50.0,0.0,0.0,0.0,0,0,100,30.17,30.11,11,1,11,0.02
2013-4-6,64.8,54.2,49.6,0.0,0.0,0.0,0,0,100,30.19,30.13,12,1,12,0.00
2013-4-8,52.8,52.8,52.8,0.0,0.0,0.0,0,0,100,29.94,29.94,0,0,0,0.00
2013-4-9,73.3,61.2,46.0,0.0,0.0,0.0,0,0,100,30.14,30.03,16,2,24,0.00
2013-4-10,80.7,66.6,53.4,0.0,0.0,0.0,0,0,100,30.21,30.05,14,2,14,0.00
2013-4-11,74.5,62.7,55.2,0.0,0.0,0.0,0,0,100,30.01,29.88,5,3,5,0.00
2013-4-12,76.3,66.5,57.9,0.0,0.0,0.0,0,0,100,29.90,29.85,8,1,8,0.00
2013-4-13,77.3,62.5,52.5,0.0,0.0,0.0,0,0,100,29.90,29.81,14,1,14,0.00
2013-4-14,71.5,57.3,47.8,0.0,0.0,0.0,0,0,100,29.88,29.76,12,2,12,0.00
2013-4-15,60.7,49.7,42.5,0.0,0.0,0.0,0,0,100,29.87,29.79,16,2,16,0.00
2013-4-16,65.8,48.2,39.9,0.0,0.0,0.0,0,0,100,30.02,29.87,16,1,16,0.00
2013-4-17,71.1,59.5,50.4,0.0,0.0,0.0,0,0,100,30.24,30.17,16,2,16,0.00
2013-4-18,74.5,57.9,43.9,0.0,0.0,0.0,0,0,100,30.28,30.21,10,1,10,0.00
2013-4-19,79.8,61.9,50.2,0.0,0.0,0.0,0,0,100,30.27,30.11,12,1,12,0.01
2013-4-20,81.6,64.2,53.0,0.0,0.0,0.0,0,0,100,30.13,30.01,15,2,15,0.00
2013-4-21,82.9,66.3,53.4,0.0,0.0,0.0,0,0,100,30.08,30.00,12,1,12,0.00
2013-4-22,72.8,60.5,56.1,0.0,0.0,0.0,0,0,100,30.02,29.98,7,1,7,0.00
2013-4-24,72.9,67.2,61.6,0.0,0.0,0.0,0,0,100,29.89,29.82,6,0,6,0.00
2013-4-25,79.7,65.4,54.1,0.0,0.0,0.0,0,0,100,30.11,29.89,11,1,11,0.01
2013-4-26,81.1,60.8,53.2,0.0,0.0,0.0,0,0,100,30.22,30.11,8,1,8,0.00
2013-4-27,84.4,73.1,64.6,0.0,0.0,0.0,0,0,100,30.24,30.11,4,1,4,0.00
2013-4-28,86.7,73.9,62.6,0.0,0.0,0.0,0,0,100,30.10,29.94,3,1,3,0.00
2013-4-29,84.0,72.3,65.2,0.0,0.0,0.0,0,0,100,29.94,29.85,3,1,3,0.00
2013-4-30,68.3,68.2,68.1,0.0,0.0,0.0,0,0,100,29.87,29.87,6,4,6,0.00
2013-5-1,87.1,70.6,61.1,0.0,0.0,0.0,0,0,100,30.15,29.93,7,4,7,0.00
2013-5-9,68.2,64.9,61.9,0.0,0.0,0.0,0,0,100,30.15,30.09,4,1,4,0.00
2013-5-10,87.9,74.6,56.9,0.0,0.0,0.0,0,0,100,30.18,30.12,8,1,8,0.00
2013-5-11,93.7,74.4,60.7,0.0,0.0,0.0,0,0,100,30.17,30.10,9,1,9,0.00
2013-5-12,97.2,76.9,65.9,0.0,0.0,0.0,0,0,100,30.18,30.06,10,2,10,0.02
2013-5-13,97.3,76.8,65.9,0.0,0.0,0.0,0,0,100,30.12,29.98,11,2,11,0.00
2013-5-14,93.3,74.5,63.6,0.0,0.0,0.0,0,0,100,29.98,29.92,12,2,12,0.00
2013-5-15,80.0,67.9,60.9,0.0,0.0,0.0,0,0,100,30.02,29.94,6,2,6,0.00
2013-5-16,60.9,56.3,53.6,0.0,0.0,0.0,0,0,100,30.02,29.95,4,0,4,0.01
2013-5-17,69.0,55.7,50.1,0.0,0.0,0.0,0,0,100,30.06,29.96,3,1,3,0.00
2013-5-18,82.5,61.1,52.3,0.0,0.0,0.0,0,0,100,30.14,30.06,6,2,6,0.00